Weather forecast for Zamuro, El Junquito

Venezuela, 1628 m
N10.473, E-67.034


Sounding

Red line — air temperature ˚C.
Blue line — thermal bubble temperature ˚C.
Green line — dew point temperature ˚C.
Wind speed is in meters per second.

Table forecast

GFS 0.25˚ model

temp. wind gust humid. clouds prec. press. hpbl
Mon17 00:00 19 149.0 sse 2 3 90 100 0.0 1015 180
03:00 19 164.0 sse 2 2 90 100 0.0 1013 102
06:00 19 161.0 sse 2 2 90 100 0.0 1014 117
09:00 22 151.0 sse 2 2 82 86 0.0 1015 239
12:00 25 167.0 sse 1 3 76 44 1.4 1015 852
15:00 25 194.0 ssw 1 3 79 59 6.1 1013 697
18:00 23 160.0 sse 2 4 86 100 5.4 1013 359
21:00 20 164.0 sse 2 3 92 100 10.6 1014 177
 
Tue18 00:00 20 159.0 sse 2 3 93 100 3.1 1016 159
03:00 20 153.0 sse 2 2 92 100 3.9 1014 157
06:00 19 166.0 sse 2 2 91 100 0.1 1014 119
09:00 21 165.0 sse 2 4 86 100 0.1 1015 355
12:00 24 157.0 sse 2 5 75 61 0.9 1016 940
15:00 24 167.0 sse 1 3 80 67 4.5 1013 634
18:00 23 176.0 s 1 3 85 100 5.1 1012 454
21:00 21 142.0 se 2 3 90 100 8.4 1013 205
 
Wed19 00:00 20 159.0 sse 2 3 93 100 3.4 1015 222
03:00 20 167.0 sse 2 3 91 100 4.4 1013 216
06:00 19 150.0 sse 2 4 89 100 0.1 1013 207
09:00 21 145.0 se 2 9 84 93 0.1 1015 983
12:00 23 136.0 se 3 7 75 87 0.4 1015 1019
15:00 23 154.0 sse 2 4 83 81 3.1 1013 752
18:00 22 127.0 se 2 4 88 100 3.2 1011 517
21:00 20 167.0 sse 2 3 91 100 4.5 1013 165
 
Thu20 00:00 19 150.0 sse 3 5 92 100 0.1 1015 326
03:00 20 145.0 se 4 10 91 100 0.3 1014 732
06:00 19 150.0 sse 3 9 89 100 0.2 1013 561
09:00 20 147.0 sse 3 7 89 100 0.2 1015 651
12:00 25 145.0 se 4 9 57 93 0.0 1016 1408
15:00 26 145.0 se 4 8 52 69 0.0 1014 1710
18:00 25 141.0 se 3 6 62 6 0.0 1013 1365
21:00 20 151.0 sse 2 3 83 27 0.5 1015 209
 
Fri21 00:00 20 153.0 sse 3 5 86 57 0.1 1017 248
03:00 19 147.0 sse 3 5 88 76 0.1 1015 253
06:00 18 147.0 sse 3 4 90 100 0.0 1015 193
09:00 20 148.0 sse 3 5 79 100 0.0 1016 436
12:00 25 139.0 se 4 11 58 81 0.0 1017 1370
15:00 26 136.0 se 3 8 59 59 0.0 1015 1513
18:00 24 137.0 se 2 7 68 100 0.0 1013 1289
21:00 20 145.0 se 2 4 88 100 0.1 1015 286
 

0.018 s